Time;durP1;ratioP1;P1;durP2;ratioP2;P2;SDS_P1;SDS_P2;PMS_P1;PMS_P2;Temp;Humidity;BMP_temperature;BMP_pressure;BME280_temperature;BME280_humidity;BME280_pressure;Samples;Min_cycle;Max_cycle;Signal;HPM_P1;HPM_P2
2022/10/31 07:39:26;;;;;;;6.57;3.08;;;;;;;13.51;69.65;96945.13;2089530;28;20552;-62
2022/10/31 07:47:06;;;;;;;5.95;2.58;;;;;;;14.27;67.93;96951.63;2080778;28;20588;-65
2022/10/31 07:48:08;;;;;;;13.38;3.65;;;;;;;14.62;66.55;96947.06;2079852;28;20260;-66
2022/10/31 07:49:09;;;;;;;14.23;3.38;;;;;;;14.25;67.04;96950.88;2081784;28;20280;-65
2022/10/31 07:50:13;;;;;;;10.70;2.80;;;;;;;14.08;67.75;96949.16;2081857;28;20245;-65
2022/10/31 07:51:15;;;;;;;12.45;3.40;;;;;;;14.37;67.10;96953.69;2080668;28;20283;-65
2022/10/31 07:59:04;;;;;;;7.80;2.78;;;;;;;13.71;68.92;96951.97;2073662;28;20228;-65
2022/10/31 08:00:08;;;;;;;7.28;2.80;;;;;;;13.45;69.79;96951.53;2074904;28;20196;-66
2022/10/31 08:01:10;;;;;;;14.63;3.15;;;;;;;13.19;71.25;96950.22;2072485;28;20281;-66
2022/10/31 08:02:16;;;;;;;15.45;4.00;;;;;;;13.24;71.40;96937.72;2072535;28;20201;-66
2022/10/31 08:03:19;;;;;;;17.48;3.83;;;;;;;13.54;70.47;96930.06;2075653;28;20377;-66
2022/10/31 08:04:20;;;;;;;9.15;3.25;;;;;;;13.78;69.45;96948.09;2076035;28;20216;-66
2022/10/31 08:05:21;;;;;;;17.08;3.70;;;;;;;13.91;68.82;96921.19;2074977;28;20295;-66
2022/10/31 08:06:23;;;;;;;13.02;3.65;;;;;;;14.12;68.60;96948.06;2073722;28;20197;-66
2022/10/31 08:07:24;;;;;;;9.90;2.80;;;;;;;13.71;70.23;96946.72;2069964;28;20292;-66
2022/10/31 08:08:27;;;;;;;6.57;3.28;;;;;;;13.70;70.36;96940.63;2070109;28;20712;-66
2022/10/31 08:16:07;;;;;;;20.00;4.18;;;;;;;14.35;70.25;96934.53;2070641;28;20345;-66
2022/10/31 08:17:08;;;;;;;27.88;3.88;;;;;;;14.72;69.91;96941.31;2069258;28;20209;-66
2022/10/31 08:18:14;;;;;;;15.75;3.58;;;;;;;14.46;70.34;96928.69;2075612;28;20640;-65
2022/10/31 08:19:15;;;;;;;11.90;3.33;;;;;;;14.46;70.92;96928.69;2083523;28;20209;-66
2022/10/31 08:20:17;;;;;;;12.75;3.45;;;;;;;14.46;71.28;96935.69;2084918;28;20235;-66
2022/10/31 08:28:06;;;;;;;17.08;3.80;;;;;;;16.51;63.57;96922.69;2081932;28;20252;-65
2022/10/31 08:29:08;;;;;;;15.93;3.80;;;;;;;16.40;63.59;96922.53;2080753;28;20324;-65
2022/10/31 08:30:10;;;;;;;11.75;4.50;;;;;;;16.53;63.48;96922.59;2080717;28;20213;-65
2022/10/31 08:31:12;;;;;;;21.58;3.72;;;;;;;16.47;63.74;96921.22;2080795;28;20239;-66
2022/10/31 08:32:13;;;;;;;14.70;6.50;;;;;;;16.28;64.46;96922.38;2078901;28;20676;-66
2022/10/31 08:40:02;;;;;;;7.13;3.83;;;;;;;17.15;61.85;96922.06;2072611;28;20853;-66
2022/10/31 08:41:04;;;;;;;27.65;4.70;;;;;;;17.47;60.46;96921.69;2074524;28;20652;-66
2022/10/31 08:42:05;;;;;;;30.58;5.18;;;;;;;17.43;60.61;96915.81;2072301;28;20651;-66
2022/10/31 08:43:11;;;;;;;56.30;6.22;;;;;;;17.37;60.41;96905.66;2068736;28;20304;-66
2022/10/31 08:44:13;;;;;;;52.13;5.93;;;;;;;17.50;60.28;96912.75;2069596;28;20642;-66
2022/10/31 08:45:15;;;;;;;23.20;6.03;;;;;;;17.55;59.91;96911.47;2072361;28;20292;-66
2022/10/31 08:46:16;;;;;;;19.05;4.85;;;;;;;17.84;59.37;96913.88;2073543;28;20720;-66
2022/10/31 08:47:18;;;;;;;126.38;63.58;;;;;;;18.05;59.41;96910.72;2073147;28;20245;-66
2022/10/31 08:48:19;;;;;;;40.78;8.02;;;;;;;18.04;58.96;96912.53;2071235;28;20296;-65
2022/10/31 08:49:20;;;;;;;11.68;4.30;;;;;;;18.05;58.76;96918.63;2073776;28;20200;-65
2022/10/31 08:50:22;;;;;;;28.85;12.60;;;;;;;18.15;58.78;96916.19;2069257;28;20949;-66
2022/10/31 08:51:23;;;;;;;12.20;4.35;;;;;;;18.00;58.72;96895.19;2067353;28;20196;-70
2022/10/31 08:52:26;;;;;;;16.85;4.72;;;;;;;18.38;58.26;96918.03;2065224;28;20203;-68
2022/10/31 08:53:47;;;;;;;20.75;4.20;;;;;;;18.31;58.09;96913.28;2062409;28;20206;-68
2022/10/31 08:54:48;;;;;;;14.93;3.55;;;;;;;18.21;58.28;96907.84;2065422;28;20202;-68
2022/10/31 08:55:50;;;;;;;13.70;3.88;;;;;;;18.03;58.94;96910.84;2066911;28;20201;-68
2022/10/31 08:56:55;;;;;;;14.30;4.10;;;;;;;16.83;61.82;96911.84;2066576;28;20210;-68
2022/10/31 08:57:57;;;;;;;17.30;3.75;;;;;;;16.07;64.41;96906.13;2065251;28;20333;-68
2022/10/31 08:59:01;;;;;;;11.00;3.63;;;;;;;16.54;63.91;96905.84;2063388;28;20202;-68
2022/10/31 09:00:03;;;;;;;16.55;4.20;;;;;;;16.30;63.93;96903.81;2062465;28;20609;-68
2022/10/31 09:01:04;;;;;;;10.23;3.85;;;;;;;16.28;64.64;96897.81;2064969;28;20702;-68
2022/10/31 09:02:07;;;;;;;12.95;4.45;;;;;;;16.45;64.15;96904.63;2068469;28;20248;-68
2022/10/31 09:09:55;;;;;;;14.95;4.43;;;;;;;17.69;62.02;96899.13;2068510;28;20174;-65
2022/10/31 09:10:57;;;;;;;19.58;4.18;;;;;;;17.87;61.47;96895.16;2066033;28;20209;-66
2022/10/31 09:12:02;;;;;;;12.63;3.33;;;;;;;17.97;61.01;96894.53;2068452;28;20201;-66
2022/10/31 09:13:13;;;;;;;11.00;3.70;;;;;;;18.23;60.88;96897.97;2068014;28;20245;-66
2022/10/31 09:14:14;;;;;;;16.10;4.47;;;;;;;18.06;61.18;96891.28;2066142;28;20290;-65
2022/10/31 09:15:15;;;;;;;12.02;3.92;;;;;;;17.92;61.32;96874.56;2065578;28;20236;-73
2022/10/31 09:16:17;;;;;;;22.63;3.35;;;;;;;17.98;61.64;96894.47;2065880;28;20202;-66
2022/10/31 09:17:18;;;;;;;11.23;4.35;;;;;;;17.97;62.03;96889.25;2065012;28;20235;-65
2022/10/31 09:18:21;;;;;;;25.42;3.70;;;;;;;17.95;63.15;96892.03;2065572;28;20705;-66
2022/10/31 09:19:23;;;;;;;12.00;3.53;;;;;;;18.38;62.44;96878.38;2066442;28;20246;-67
2022/10/31 09:20:24;;;;;;;19.83;4.60;;;;;;;18.65;62.32;96892.34;2068690;28;20222;-65
2022/10/31 09:28:06;;;;;;;20.40;4.18;;;;;;;21.72;54.81;96890.28;2064481;28;20250;-71
2022/10/31 09:29:09;;;;;;;12.20;3.80;;;;;;;21.43;55.11;96893.56;2070238;28;20194;-70
2022/10/31 09:30:11;;;;;;;16.55;3.97;;;;;;;20.94;55.64;96886.13;2068436;28;20550;-70
2022/10/31 09:31:12;;;;;;;19.05;3.92;;;;;;;20.84;55.99;96886.03;2068133;28;20837;-70
2022/10/31 09:32:14;;;;;;;19.40;3.40;;;;;;;20.51;57.10;96893.09;2067737;28;20229;-71
2022/10/31 09:33:16;;;;;;;10.93;3.95;;;;;;;20.67;58.23;96882.09;2065576;28;20646;-69
2022/10/31 09:34:17;;;;;;;37.85;15.43;;;;;;;21.40;56.41;96883.22;2067233;28;20202;-72
2022/10/31 09:35:19;;;;;;;26.05;7.45;;;;;;;21.68;55.70;96884.38;2067225;28;20599;-70
2022/10/31 09:36:26;;;;;;;16.40;5.80;;;;;;;21.77;54.36;96883.56;2066809;28;20573;-70
2022/10/31 09:37:28;;;;;;;24.80;4.57;;;;;;;20.87;56.70;96887.59;2067259;28;20349;-70
2022/10/31 09:38:29;;;;;;;15.90;3.97;;;;;;;21.04;56.23;96891.50;2070195;28;20208;-71
2022/10/31 09:39:35;;;;;;;17.35;4.97;;;;;;;21.26;55.31;96874.59;2066859;28;20213;-71
2022/10/31 09:40:40;;;;;;;16.30;4.57;;;;;;;21.17;55.13;96865.59;2068824;28;20201;-70
2022/10/31 09:42:28;;;;;;;12.88;4.15;;;;;;;20.90;55.23;96890.00;2066373;28;20276;-70
2022/10/31 09:43:48;;;;;;;14.65;4.40;;;;;;;20.57;56.12;96899.72;2042186;29;20228;-71
2022/10/31 09:45:08;;;;;;;22.05;4.22;;;;;;;20.41;55.79;96900.13;2066937;28;20204;-70
2022/10/31 09:46:10;;;;;;;16.75;4.45;;;;;;;20.14;56.37;96895.22;2067673;28;20316;-70
2022/10/31 09:47:17;;;;;;;13.05;3.72;;;;;;;20.17;56.15;96887.03;2067278;28;20672;-70
2022/10/31 09:49:24;;;;;;;8.38;4.70;;;;;;;20.23;56.70;96905.91;2064815;28;20252;-70
2022/10/31 09:57:14;;;;;;;10.32;4.25;;;;;;;19.96;57.12;96892.22;2066088;28;20285;-67
2022/10/31 09:58:20;;;;;;;24.25;5.38;;;;;;;20.02;56.75;96897.88;2064831;28;20252;-67
2022/10/31 09:59:34;;;;;;;21.10;4.97;;;;;;;20.66;56.18;96893.66;2071792;28;20251;-66
2022/10/31 10:00:36;;;;;;;15.75;4.47;;;;;;;21.01;55.61;96886.44;2071402;28;20348;-66
2022/10/31 10:01:45;;;;;;;14.88;4.43;;;;;;;21.19;54.66;96886.69;2069823;28;20614;-68
2022/10/31 10:02:54;;;;;;;14.82;5.13;;;;;;;21.73;55.00;96887.47;2064744;28;20222;-70
2022/10/31 10:04:02;;;;;;;17.65;4.35;;;;;;;21.51;53.36;96891.13;2065933;28;20286;-67
2022/10/31 10:05:24;;;;;;;13.82;3.95;;;;;;;21.57;57.50;96887.13;2068242;28;20213;-69
2022/10/31 10:06:29;;;;;;;11.02;4.45;;;;;;;21.52;54.45;96876.84;2067186;28;20226;-69
2022/10/31 10:07:55;;;;;;;15.43;4.38;;;;;;;21.19;54.64;96881.38;2064568;28;20234;-69
2022/10/31 10:14:05;;;;;;;9.43;3.20;;;;;;;21.94;52.93;96874.16;2064159;28;20202;-69
2022/10/31 10:15:18;;;;;;;11.20;4.60;;;;;;;20.66;56.59;96872.44;2061568;28;20705;-69
2022/10/31 10:16:57;;;;;;;8.27;3.95;;;;;;;19.86;58.64;96874.41;2063655;28;20548;-68
2022/10/31 10:18:04;;;;;;;21.23;4.63;;;;;;;20.01;58.70;96877.66;2065211;28;20343;-68
2022/10/31 10:19:25;;;;;;;14.20;4.28;;;;;;;20.45;57.80;96852.97;2063943;28;20203;-67
2022/10/31 10:20:54;;;;;;;11.32;3.97;;;;;;;20.30;58.34;96873.63;2065862;28;20261;-68
2022/10/31 10:22:02;;;;;;;17.42;3.70;;;;;;;19.90;59.74;96867.06;2064443;28;20308;-68
2022/10/31 10:23:40;;;;;;;16.23;4.60;;;;;;;19.97;60.92;96872.69;2065504;28;20254;-68
2022/10/31 10:25:20;;;;;;;27.77;4.50;;;;;;;20.03;60.95;96866.91;2068022;28;20202;-68
2022/10/31 10:33:11;;;;;;;12.40;4.97;;;;;;;21.67;59.30;96849.00;2050676;28;20223;-66
2022/10/31 10:34:21;;;;;;;15.98;4.45;;;;;;;22.05;59.07;96854.59;2051813;28;20326;-66
2022/10/31 10:35:25;;;;;;;13.57;4.63;;;;;;;22.00;57.30;96859.47;2052227;28;20230;-68
2022/10/31 10:36:44;;;;;;;11.75;4.40;;;;;;;21.97;56.57;96859.75;2043062;29;20258;-67
2022/10/31 10:37:48;;;;;;;11.32;3.80;;;;;;;21.69;56.74;96841.72;2045708;28;20227;-67
2022/10/31 10:39:02;;;;;;;14.70;4.65;;;;;;;21.53;56.42;96863.44;2052200;28;20235;-68
2022/10/31 10:40:26;;;;;;;12.80;6.13;;;;;;;21.65;56.83;96869.53;2041491;29;20227;-67
2022/10/31 10:41:31;;;;;;;15.13;4.95;;;;;;;21.53;57.30;96867.91;2035883;29;20199;-67
2022/10/31 10:43:55;;;;;;;17.65;4.88;;;;;;;21.50;59.13;96866.34;2051409;28;20793;-66
2022/10/31 10:50:06;;;;;;;18.58;5.90;;;;;;;21.61;58.49;96852.19;2053305;28;20207;-65
2022/10/31 10:51:18;;;;;;;19.52;4.72;;;;;;;20.81;57.96;96851.78;2053097;28;20279;-65
2022/10/31 10:53:32;;;;;;;14.30;5.82;;;;;;;20.94;59.32;96851.59;2053213;28;20206;-66
2022/10/31 10:54:45;;;;;;;22.05;4.38;;;;;;;21.41;59.38;96842.38;2035152;29;20269;-66
2022/10/31 10:55:59;;;;;;;11.65;4.15;;;;;;;21.38;60.85;96854.13;2041606;29;20247;-66
2022/10/31 10:57:23;;;;;;;16.65;3.85;;;;;;;21.78;59.63;96847.22;2043931;28;20335;-65
2022/10/31 10:58:25;;;;;;;11.27;3.67;;;;;;;21.54;59.47;96841.19;2029796;29;20271;-66
2022/10/31 10:59:27;;;;;;;14.13;3.22;;;;;;;21.80;58.56;96830.19;2040763;29;20303;-66
2022/10/31 11:00:46;;;;;;;11.45;4.60;;;;;;;21.82;58.19;96838.00;2045580;28;20207;-67
2022/10/31 11:01:51;;;;;;;11.02;4.03;;;;;;;21.90;59.09;96813.41;2068026;28;20198;-65
2022/10/31 11:02:53;;;;;;;14.48;3.90;;;;;;;21.25;61.34;96834.91;2057649;28;20335;-65
2022/10/31 11:03:55;;;;;;;15.05;3.53;;;;;;;21.39;57.60;96831.06;2057310;28;20235;-66
2022/10/31 11:04:59;;;;;;;10.02;3.78;;;;;;;21.16;61.14;96826.75;2063493;28;20815;-65
2022/10/31 11:06:01;;;;;;;11.55;3.60;;;;;;;21.39;58.87;96817.78;2063528;28;20292;-65
2022/10/31 11:14:11;;;;;;;9.00;3.30;;;;;;;21.38;61.19;96801.00;2066391;28;20565;-65
2022/10/31 11:15:23;;;;;;;16.55;3.85;;;;;;;21.20;60.15;96808.72;2065605;28;20882;-65
2022/10/31 11:16:27;;;;;;;8.60;3.47;;;;;;;20.97;60.56;96811.53;2066555;28;20657;-65
2022/10/31 11:17:38;;;;;;;15.93;4.18;;;;;;;20.98;61.90;96807.91;2064991;28;20679;-65
2022/10/31 11:18:46;;;;;;;11.32;3.97;;;;;;;21.01;62.11;96801.50;2064502;28;20302;-65
2022/10/31 11:19:48;;;;;;;10.95;5.00;;;;;;;19.99;59.21;96807.19;2068013;28;20614;-65
2022/10/31 11:20:57;;;;;;;15.10;4.20;;;;;;;19.64;61.22;96808.13;2063161;28;20332;-65
2022/10/31 11:22:16;;;;;;;12.10;4.00;;;;;;;19.34;60.32;96810.44;2063787;28;20205;-65
2022/10/31 11:23:19;;;;;;;12.73;4.13;;;;;;;18.85;62.25;96811.50;2066529;28;20255;-65
2022/10/31 11:24:25;;;;;;;12.25;4.10;;;;;;;18.88;62.29;96811.25;2062978;28;20845;-65
2022/10/31 11:25:26;;;;;;;24.58;4.90;;;;;;;18.84;62.88;96810.69;2061532;28;20282;-66
2022/10/31 11:26:27;;;;;;;10.43;3.47;;;;;;;18.82;61.81;96803.81;2067711;28;20281;-65
2022/10/31 11:27:29;;;;;;;14.48;5.07;;;;;;;19.03;61.50;96802.22;2064766;28;20198;-65
2022/10/31 11:28:34;;;;;;;21.33;3.65;;;;;;;18.88;61.27;96809.47;2068284;28;20293;-66
2022/10/31 11:29:36;;;;;;;14.73;4.78;;;;;;;19.04;61.38;96805.69;2067251;28;20203;-65
2022/10/31 11:30:59;;;;;;;10.25;3.83;;;;;;;18.72;60.99;96806.31;2066654;28;20878;-65
2022/10/31 11:37:09;;;;;;;7.72;3.80;;;;;;;19.72;61.05;96803.91;2066764;28;20170;-64
2022/10/31 11:38:18;;;;;;;15.57;4.40;;;;;;;19.61;61.33;96798.63;2063270;28;20700;-64
2022/10/31 11:39:24;;;;;;;16.52;3.90;;;;;;;19.63;61.24;96796.72;2064145;28;20233;-63
2022/10/31 11:40:26;;;;;;;12.05;5.68;;;;;;;19.83;63.17;96800.47;2067228;28;20342;-65
2022/10/31 11:41:34;;;;;;;17.08;4.45;;;;;;;19.82;63.47;96787.28;2066423;28;20210;-63
2022/10/31 11:42:39;;;;;;;12.93;4.75;;;;;;;19.77;64.43;96794.75;2066003;28;20292;-64
2022/10/31 11:44:06;;;;;;;12.68;4.07;;;;;;;19.80;64.22;96792.72;2066340;28;20228;-63
2022/10/31 11:45:14;;;;;;;10.13;3.90;;;;;;;19.73;64.96;96797.66;2059892;28;20323;-64
2022/10/31 11:46:21;;;;;;;9.00;4.63;;;;;;;19.68;64.57;96788.38;2066150;28;20202;-64
2022/10/31 11:47:29;;;;;;;11.10;3.70;;;;;;;19.82;63.91;96803.19;2068300;28;20195;-65
2022/10/31 11:48:31;;;;;;;16.10;4.53;;;;;;;19.86;63.35;96799.38;2068512;28;20221;-66
2022/10/31 11:49:40;;;;;;;11.82;4.68;;;;;;;19.83;62.73;96794.31;2068090;28;20272;-63
2022/10/31 11:50:55;;;;;;;15.82;5.50;;;;;;;19.89;63.23;96786.69;2062454;28;20241;-62
2022/10/31 11:52:00;;;;;;;28.17;10.15;;;;;;;19.94;63.47;96791.63;2064586;28;20625;-63
2022/10/31 11:53:02;;;;;;;20.50;7.53;;;;;;;20.00;64.13;96779.72;2069422;28;20245;-65
2022/10/31 11:54:05;;;;;;;10.05;4.75;;;;;;;19.75;64.17;96777.16;2068955;28;20226;-64
2022/10/31 12:07:04;;;;;;;19.75;4.13;;;;;;;20.70;63.78;96767.78;2064878;28;20214;-63
2022/10/31 12:08:12;;;;;;;21.20;4.07;;;;;;;20.81;63.65;96747.44;2064531;28;20213;-64
2022/10/31 12:09:27;;;;;;;10.40;4.22;;;;;;;20.66;61.99;96758.38;2067237;28;20204;-64
2022/10/31 12:10:51;;;;;;;13.80;4.18;;;;;;;20.74;63.29;96757.75;2061803;28;20202;-63
2022/10/31 12:12:11;;;;;;;12.40;4.38;;;;;;;21.16;60.57;96760.38;2067561;28;20205;-63
2022/10/31 12:13:40;;;;;;;9.52;3.90;;;;;;;21.00;61.25;96755.53;2066010;28;20214;-63
2022/10/31 12:14:56;;;;;;;16.27;4.20;;;;;;;21.13;60.89;96746.53;2066365;28;20226;-63
2022/10/31 12:16:42;;;;;;;12.43;4.18;;;;;;;21.16;59.24;96747.09;2066267;28;20205;-63
2022/10/31 12:18:14;;;;;;;17.00;4.32;;;;;;;20.79;61.54;96760.03;2055322;28;20619;-64
2022/10/31 12:19:30;;;;;;;23.13;3.63;;;;;;;21.02;60.36;96753.59;2073161;28;20197;-63
2022/10/31 12:21:04;;;;;;;16.27;3.70;;;;;;;20.96;60.28;96742.66;2072600;28;20217;-65
2022/10/31 12:22:23;;;;;;;13.43;4.32;;;;;;;21.09;59.81;96737.13;2063820;28;20209;-63
2022/10/31 12:23:34;;;;;;;15.57;4.03;;;;;;;21.04;60.37;96748.16;2063077;28;20823;-62
2022/10/31 12:24:52;;;;;;;20.23;4.65;;;;;;;20.62;60.63;96742.81;2073913;28;20202;-63
2022/10/31 12:31:03;;;;;;;13.65;4.10;;;;;;;20.23;62.33;96746.84;2067545;28;20178;-63
2022/10/31 12:32:25;;;;;;;14.48;4.47;;;;;;;19.77;62.16;96717.94;2069447;28;20205;-63
2022/10/31 12:33:54;;;;;;;10.35;3.40;;;;;;;19.64;62.32;96704.84;2068679;28;20241;-63
2022/10/31 12:35:30;;;;;;;18.42;4.78;;;;;;;19.80;62.11;96739.72;2068174;28;20285;-64
2022/10/31 12:36:58;;;;;;;8.23;3.90;;;;;;;19.61;63.41;96724.47;2068960;28;20251;-63
2022/10/31 12:43:05;;;;;;;17.20;4.30;;;;;;;19.36;63.29;96731.72;2067782;28;20304;-63
2022/10/31 12:44:12;;;;;;;23.15;4.18;;;;;;;18.99;63.69;96715.25;2068438;28;20261;-63
2022/10/31 12:45:21;;;;;;;19.65;4.43;;;;;;;19.09;64.70;96724.16;2065210;28;20634;-63
2022/10/31 12:47:09;;;;;;;14.38;4.22;;;;;;;19.07;65.33;96718.97;2063616;28;20222;-64
2022/10/31 12:48:16;;;;;;;17.63;4.55;;;;;;;19.20;66.03;96716.19;2070385;28;20709;-64
2022/10/31 12:49:44;;;;;;;16.17;3.83;;;;;;;19.24;65.82;96708.88;2072784;28;20253;-63
2022/10/31 12:51:15;;;;;;;29.08;4.70;;;;;;;19.22;67.41;96690.47;2047630;29;20208;-63
2022/10/31 12:53:00;;;;;;;16.90;3.80;;;;;;;19.22;67.93;96700.19;2064446;28;20251;-63
2022/10/31 12:54:17;;;;;;;23.63;5.00;;;;;;;19.17;68.56;96692.63;2038018;28;20223;-64
2022/10/31 13:02:22;;;;;;;21.58;4.63;;;;;;;18.96;71.34;96684.56;2067103;28;20205;-64
2022/10/31 13:03:33;;;;;;;19.90;4.13;;;;;;;18.91;70.73;96684.91;2064930;28;20226;-64
2022/10/31 13:05:10;;;;;;;14.93;4.20;;;;;;;19.01;70.12;96681.56;2068162;28;20194;-65
2022/10/31 13:06:23;;;;;;;10.57;4.10;;;;;;;18.99;69.57;96680.84;2056171;28;20851;-64
2022/10/31 13:07:34;;;;;;;27.17;4.50;;;;;;;19.10;69.67;96672.91;2066137;28;20318;-64
2022/10/31 13:08:52;;;;;;;17.52;3.85;;;;;;;19.07;69.49;96668.69;2068039;28;20245;-64
2022/10/31 13:10:03;;;;;;;14.50;3.75;;;;;;;19.05;70.19;96662.66;2067632;28;20208;-63
2022/10/31 13:11:11;;;;;;;22.75;5.10;;;;;;;19.12;69.98;96663.03;2065782;28;20557;-65
2022/10/31 13:12:18;;;;;;;11.48;4.07;;;;;;;19.18;70.54;96667.00;2069024;28;20199;-65
2022/10/31 13:13:31;;;;;;;12.88;4.30;;;;;;;19.17;69.40;96666.19;2066822;28;20606;-64
2022/10/31 13:14:38;;;;;;;13.88;4.55;;;;;;;19.23;69.33;96659.53;2064633;28;20237;-64
2022/10/31 13:15:53;;;;;;;22.67;4.10;;;;;;;19.42;66.99;96664.19;2070860;28;20277;-65
2022/10/31 13:16:56;;;;;;;24.67;5.15;;;;;;;19.87;63.97;96663.25;2065170;28;20198;-64
2022/10/31 13:18:11;;;;;;;17.65;4.05;;;;;;;19.51;63.26;96650.22;2066569;28;20222;-64
2022/10/31 13:26:11;;;;;;;19.73;4.82;;;;;;;22.47;55.82;96686.00;2065538;28;20202;-64
2022/10/31 13:27:29;;;;;;;18.10;5.70;;;;;;;22.76;54.68;96685.09;2064857;28;20198;-64
2022/10/31 13:29:05;;;;;;;19.45;3.60;;;;;;;23.42;53.17;96686.00;2072117;28;20230;-64
2022/10/31 13:30:17;;;;;;;11.80;3.63;;;;;;;23.89;51.14;96672.53;2072636;28;20236;-64
2022/10/31 13:31:22;;;;;;;17.38;3.90;;;;;;;24.03;50.86;96665.03;2069225;28;20277;-65
2022/10/31 13:32:28;;;;;;;13.68;3.95;;;;;;;23.88;51.23;96662.03;2068150;28;20203;-65
2022/10/31 13:33:37;;;;;;;17.52;4.43;;;;;;;24.21;50.51;96659.69;2064052;28;20821;-64
2022/10/31 13:34:46;;;;;;;11.82;4.13;;;;;;;24.55;50.11;96665.13;2065070;28;20596;-65
2022/10/31 13:36:14;;;;;;;14.77;3.70;;;;;;;24.53;48.89;96660.94;2065750;28;20210;-64
2022/10/31 13:37:36;;;;;;;13.48;4.10;;;;;;;24.42;49.77;96664.69;2069330;28;20723;-64
2022/10/31 13:38:48;;;;;;;9.00;3.10;;;;;;;24.64;49.29;96650.03;2075004;28;20281;-63
2022/10/31 13:40:05;;;;;;;17.20;4.07;;;;;;;24.20;50.34;96660.69;2073645;28;20201;-64
2022/10/31 13:41:31;;;;;;;10.77;4.25;;;;;;;23.66;51.14;96666.81;2066329;28;20301;-64
2022/10/31 13:42:35;;;;;;;9.02;3.95;;;;;;;23.26;51.93;96660.00;2063305;28;20293;-63
2022/10/31 13:43:55;;;;;;;11.52;3.88;;;;;;;23.09;52.20;96664.25;2067341;28;20284;-64
2022/10/31 13:45:11;;;;;;;11.75;4.10;;;;;;;22.52;53.72;96670.44;2064547;28;20222;-65
2022/10/31 13:46:45;;;;;;;9.88;4.32;;;;;;;22.58;54.49;96666.38;2073209;28;20196;-64
2022/10/31 13:48:01;;;;;;;8.07;3.35;;;;;;;22.50;54.63;96653.81;2051272;28;20210;-65
2022/10/31 13:49:21;;;;;;;14.00;4.38;;;;;;;22.67;55.36;96655.69;2076726;28;20205;-63
2022/10/31 13:50:31;;;;;;;17.38;4.43;;;;;;;21.96;57.47;96659.53;2076728;28;20225;-65
2022/10/31 13:51:34;;;;;;;12.10;4.60;;;;;;;21.89;57.95;96644.28;2076302;28;20225;-65
2022/10/31 13:52:37;;;;;;;27.30;14.48;;;;;;;21.91;58.11;96648.47;2076237;28;20197;-64
2022/10/31 13:53:45;;;;;;;10.57;4.97;;;;;;;21.87;57.89;96641.75;2068108;28;20202;-65
2022/10/31 13:54:55;;;;;;;25.73;5.13;;;;;;;21.80;58.65;96636.19;2068886;28;20197;-64
2022/10/31 14:01:09;;;;;;;14.18;3.88;;;;;;;21.27;60.24;96636.44;2064459;28;20187;-65
2022/10/31 14:02:16;;;;;;;15.77;4.03;;;;;;;21.18;61.32;96635.47;2067274;28;20585;-64
2022/10/31 14:03:19;;;;;;;10.48;4.18;;;;;;;21.31;60.43;96630.75;2062363;28;20229;-67
2022/10/31 14:04:48;;;;;;;14.05;3.75;;;;;;;21.83;59.31;96637.72;2064885;28;20213;-64
2022/10/31 14:05:55;;;;;;;12.00;4.22;;;;;;;22.30;57.22;96631.69;2065036;28;20894;-64
2022/10/31 14:13:41;;;;;;;22.17;4.47;;;;;;;21.62;57.94;96619.22;2065636;28;20240;-64
2022/10/31 14:14:47;;;;;;;8.25;3.22;;;;;;;21.76;57.66;96623.28;2066684;28;20670;-63
2022/10/31 14:16:01;;;;;;;18.35;4.18;;;;;;;22.28;56.87;96637.16;2064988;28;20238;-63
2022/10/31 14:17:17;;;;;;;12.25;3.90;;;;;;;22.19;56.81;96630.00;2066068;28;20202;-64
2022/10/31 14:18:28;;;;;;;12.75;3.17;;;;;;;22.43;56.26;96628.75;2065331;28;20313;-64
2022/10/31 14:19:29;;;;;;;16.77;4.78;;;;;;;22.64;55.96;96620.59;2068536;28;20233;-64
2022/10/31 14:20:35;;;;;;;16.30;3.92;;;;;;;22.66;56.17;96624.78;2066738;28;20199;-64
2022/10/31 14:21:41;;;;;;;31.63;5.05;;;;;;;22.66;55.35;96619.44;2069508;28;20213;-64
2022/10/31 14:22:42;;;;;;;27.63;5.47;;;;;;;22.78;55.06;96608.63;2067394;28;20289;-64
2022/10/31 14:23:44;;;;;;;18.27;4.30;;;;;;;22.89;54.73;96618.25;2068827;28;20229;-64
2022/10/31 14:24:54;;;;;;;27.42;4.60;;;;;;;23.13;54.44;96620.38;2067022;28;20605;-64
2022/10/31 14:26:28;;;;;;;21.98;3.75;;;;;;;23.38;54.26;96624.19;2067159;28;20198;-65
2022/10/31 14:27:34;;;;;;;13.88;3.95;;;;;;;23.88;53.25;96617.53;2064035;28;20238;-63
2022/10/31 14:28:35;;;;;;;10.93;4.38;;;;;;;22.42;53.30;96616.41;2064304;28;20220;-63
2022/10/31 14:29:37;;;;;;;19.35;3.80;;;;;;;21.84;55.11;96616.31;2068277;28;20226;-64
2022/10/31 14:30:38;;;;;;;15.32;4.22;;;;;;;21.54;56.61;96623.38;2067647;28;20204;-63
2022/10/31 14:37:04;;;;;;;13.82;3.80;;;;;;;22.38;54.87;96615.03;2074202;28;20182;-64
2022/10/31 14:38:32;;;;;;;15.75;3.72;;;;;;;22.59;55.21;96621.00;2068670;28;20624;-64
2022/10/31 14:39:48;;;;;;;6.65;3.45;;;;;;;23.13;53.52;96617.72;2066884;28;20281;-63
2022/10/31 14:41:06;;;;;;;6.88;3.47;;;;;;;23.10;52.88;96621.50;2064984;28;20212;-64
2022/10/31 14:42:17;;;;;;;15.30;3.58;;;;;;;22.87;53.35;96613.06;2065801;28;20233;-64
2022/10/31 14:43:28;;;;;;;12.85;4.55;;;;;;;23.20;52.32;96618.84;2066545;28;20249;-64
2022/10/31 14:44:38;;;;;;;16.52;3.75;;;;;;;23.06;52.76;96611.28;2063776;28;20206;-64
2022/10/31 14:46:03;;;;;;;18.90;3.85;;;;;;;22.76;53.04;96611.41;2067305;28;20547;-64
2022/10/31 14:47:16;;;;;;;20.90;4.00;;;;;;;21.18;56.23;96607.09;2065401;28;20210;-63
2022/10/31 14:48:52;;;;;;;12.50;3.40;;;;;;;21.17;57.25;96615.19;2064126;28;20222;-64
2022/10/31 14:50:21;;;;;;;17.73;3.63;;;;;;;21.02;57.60;96607.59;2061642;28;20205;-64
2022/10/31 14:51:28;;;;;;;11.80;4.15;;;;;;;20.48;58.74;96608.72;2066641;28;20285;-64
2022/10/31 14:52:30;;;;;;;10.52;4.20;;;;;;;20.65;58.06;96608.13;2066687;28;20225;-64
2022/10/31 14:53:34;;;;;;;22.35;4.05;;;;;;;20.39;58.88;96607.69;2065324;28;20241;-64
2022/10/31 14:54:43;;;;;;;8.75;3.42;;;;;;;19.92;60.29;96601.94;2067342;28;20295;-64
2022/10/31 14:55:49;;;;;;;16.40;4.40;;;;;;;20.08;60.55;96601.53;2065387;28;20233;-64
2022/10/31 14:56:56;;;;;;;9.32;3.40;;;;;;;20.20;60.46;96606.63;2064550;28;20730;-64
2022/10/31 14:58:06;;;;;;;11.07;4.18;;;;;;;20.22;60.74;96593.22;2064025;28;20322;-64
2022/10/31 14:59:13;;;;;;;9.18;3.40;;;;;;;20.23;62.40;96602.88;2060643;28;20261;-64
2022/10/31 15:00:18;;;;;;;19.92;4.18;;;;;;;20.10;63.67;96597.78;2065328;28;20337;-64
2022/10/31 15:13:10;;;;;;;13.48;4.72;;;;;;;19.14;68.02;96610.81;2065174;28;20186;-64
2022/10/31 15:14:30;;;;;;;16.30;4.15;;;;;;;18.99;68.73;96609.41;2066990;28;20614;-64
2022/10/31 15:15:32;;;;;;;25.42;4.72;;;;;;;18.84;68.71;96593.75;2067948;28;20221;-63
2022/10/31 15:16:39;;;;;;;20.48;4.72;;;;;;;18.86;68.66;96610.34;2067930;28;20213;-64
2022/10/31 15:17:48;;;;;;;13.27;4.05;;;;;;;18.84;68.97;96607.00;2066954;28;20202;-63
2022/10/31 15:18:54;;;;;;;24.00;4.30;;;;;;;18.69;70.07;96602.88;2067217;28;20908;-64
2022/10/31 15:19:57;;;;;;;11.55;4.15;;;;;;;18.50;70.70;96614.91;2067452;28;20289;-65
2022/10/31 15:20:59;;;;;;;13.32;3.95;;;;;;;18.46;70.97;96607.31;2066815;28;20202;-64
2022/10/31 15:22:01;;;;;;;18.33;3.95;;;;;;;18.41;71.19;96594.44;2067801;28;20212;-64
2022/10/31 15:23:02;;;;;;;16.92;4.82;;;;;;;18.42;71.29;96598.78;2066717;28;20252;-65
2022/10/31 15:24:04;;;;;;;13.02;4.53;;;;;;;18.36;71.65;96591.31;2069138;28;20285;-65
2022/10/31 15:25:15;;;;;;;25.90;4.50;;;;;;;18.31;71.80;96588.19;2066995;28;20229;-65
2022/10/31 15:26:19;;;;;;;15.57;5.28;;;;;;;18.31;71.96;96593.47;2064897;28;20229;-65
2022/10/31 15:27:21;;;;;;;12.43;4.95;;;;;;;18.08;72.38;96570.50;2065208;28;20221;-64
2022/10/31 15:28:24;;;;;;;17.80;5.40;;;;;;;18.18;72.69;96598.88;2063774;28;20534;-64
